sensor_id;sensor_type;location;lat;lon;timestamp;pressure;altitude;pressure_sealevel;temperature;humidity
75996;BME280;64681;49.738;9.004;2023-08-06T00:00:07;98662.44;;;16.72;79.51
75996;BME280;64681;49.738;9.004;2023-08-06T00:02:33;98660.84;;;16.82;79.28
75996;BME280;64681;49.738;9.004;2023-08-06T00:04:59;98671.63;;;16.86;78.73
75996;BME280;64681;49.738;9.004;2023-08-06T00:07:24;98660.09;;;16.89;78.67
75996;BME280;64681;49.738;9.004;2023-08-06T00:09:50;98665.84;;;16.98;78.00
75996;BME280;64681;49.738;9.004;2023-08-06T00:12:15;98654.28;;;16.90;78.42
75996;BME280;64681;49.738;9.004;2023-08-06T00:14:41;98657.41;;;16.92;78.18
75996;BME280;64681;49.738;9.004;2023-08-06T00:17:08;98662.00;;;16.96;77.75
75996;BME280;64681;49.738;9.004;2023-08-06T00:19:33;98662.00;;;16.99;77.92
75996;BME280;64681;49.738;9.004;2023-08-06T00:21:59;98656.59;;;17.03;77.86
75996;BME280;64681;49.738;9.004;2023-08-06T00:24:24;98653.88;;;17.03;77.62
75996;BME280;64681;49.738;9.004;2023-08-06T00:26:50;98645.03;;;17.06;77.81
75996;BME280;64681;49.738;9.004;2023-08-06T00:29:15;98636.97;;;16.99;77.79
75996;BME280;64681;49.738;9.004;2023-08-06T00:31:41;98638.88;;;16.98;78.16
75996;BME280;64681;49.738;9.004;2023-08-06T00:34:06;98638.84;;;17.02;77.93
75996;BME280;64681;49.738;9.004;2023-08-06T00:36:32;98634.25;;;17.02;77.68
75996;BME280;64681;49.738;9.004;2023-08-06T00:38:57;98625.38;;;16.98;77.77
75996;BME280;64681;49.738;9.004;2023-08-06T00:41:23;98618.47;;;16.86;78.29
75996;BME280;64681;49.738;9.004;2023-08-06T00:43:48;98615.00;;;16.89;78.11
75996;BME280;64681;49.738;9.004;2023-08-06T00:46:14;98612.31;;;16.97;77.69
75996;BME280;64681;49.738;9.004;2023-08-06T00:48:41;98606.91;;;16.97;77.77
75996;BME280;64681;49.738;9.004;2023-08-06T00:51:10;98605.34;;;16.92;77.83
75996;BME280;64681;49.738;9.004;2023-08-06T00:53:39;98600.38;;;16.94;77.54
75996;BME280;64681;49.738;9.004;2023-08-06T00:56:06;98602.28;;;17.01;77.40
75996;BME280;64681;49.738;9.004;2023-08-06T00:58:35;98600.34;;;16.90;77.66
75996;BME280;64681;49.738;9.004;2023-08-06T01:01:02;98592.69;;;16.74;78.14
75996;BME280;64681;49.738;9.004;2023-08-06T01:03:28;98591.91;;;16.81;77.95
75996;BME280;64681;49.738;9.004;2023-08-06T01:05:55;98594.56;;;16.92;77.74
75996;BME280;64681;49.738;9.004;2023-08-06T01:13:53;98578.00;;;16.90;78.00
75996;BME280;64681;49.738;9.004;2023-08-06T01:16:20;98586.13;;;16.97;77.80
75996;BME280;64681;49.738;9.004;2023-08-06T01:18:48;98576.06;;;17.01;77.58
75996;BME280;64681;49.738;9.004;2023-08-06T01:21:18;98581.06;;;16.99;78.02
75996;BME280;64681;49.738;9.004;2023-08-06T01:23:46;98576.09;;;16.87;78.69
75996;BME280;64681;49.738;9.004;2023-08-06T01:29:03;98569.91;;;16.90;78.08
75996;BME280;64681;49.738;9.004;2023-08-06T01:31:36;98557.63;;;16.92;78.03
75996;BME280;64681;49.738;9.004;2023-08-06T01:34:06;98564.50;;;17.04;77.47
75996;BME280;64681;49.738;9.004;2023-08-06T01:36:33;98561.81;;;17.04;77.67
75996;BME280;64681;49.738;9.004;2023-08-06T01:38:59;98557.56;;;17.07;77.63
75996;BME280;64681;49.738;9.004;2023-08-06T01:41:25;98559.50;;;16.99;78.14
75996;BME280;64681;49.738;9.004;2023-08-06T01:43:50;98552.53;;;17.05;78.07
75996;BME280;64681;49.738;9.004;2023-08-06T01:46:16;98553.66;;;17.15;77.43
75996;BME280;64681;49.738;9.004;2023-08-06T01:48:41;98557.13;;;17.12;77.43
75996;BME280;64681;49.738;9.004;2023-08-06T01:51:07;98550.19;;;17.11;77.39
75996;BME280;64681;49.738;9.004;2023-08-06T01:53:33;98548.28;;;17.12;77.63
75996;BME280;64681;49.738;9.004;2023-08-06T01:55:59;98549.84;;;17.05;77.75
75996;BME280;64681;49.738;9.004;2023-08-06T01:58:25;98539.03;;;17.05;77.83
75996;BME280;64681;49.738;9.004;2023-08-06T02:00:50;98529.81;;;17.03;77.96
75996;BME280;64681;49.738;9.004;2023-08-06T02:03:16;98538.69;;;17.03;78.17
75996;BME280;64681;49.738;9.004;2023-08-06T02:05:41;98532.09;;;17.12;77.70
75996;BME280;64681;49.738;9.004;2023-08-06T02:08:07;98526.28;;;17.17;77.72
75996;BME280;64681;49.738;9.004;2023-08-06T02:10:33;98534.00;;;17.15;77.79
75996;BME280;64681;49.738;9.004;2023-08-06T02:12:59;98532.91;;;17.05;78.02
75996;BME280;64681;49.738;9.004;2023-08-06T02:15:24;98521.03;;;16.84;78.37
75996;BME280;64681;49.738;9.004;2023-08-06T02:17:50;98526.38;;;16.99;78.33
75996;BME280;64681;49.738;9.004;2023-08-06T02:20:15;98527.06;;;17.10;77.79
75996;BME280;64681;49.738;9.004;2023-08-06T02:22:41;98528.22;;;17.13;77.76
75996;BME280;64681;49.738;9.004;2023-08-06T02:25:07;98516.69;;;17.08;77.58
75996;BME280;64681;49.738;9.004;2023-08-06T02:27:32;98515.16;;;17.07;77.63
75996;BME280;64681;49.738;9.004;2023-08-06T02:29:58;98517.41;;;17.13;77.48
75996;BME280;64681;49.738;9.004;2023-08-06T02:32:24;98506.31;;;17.03;77.48
75996;BME280;64681;49.738;9.004;2023-08-06T02:34:49;98510.59;;;17.01;77.80
75996;BME280;64681;49.738;9.004;2023-08-06T02:37:15;98506.66;;;17.09;77.65
75996;BME280;64681;49.738;9.004;2023-08-06T02:39:40;98508.56;;;17.16;77.37
75996;BME280;64681;49.738;9.004;2023-08-06T02:42:07;98507.00;;;17.18;77.34
75996;BME280;64681;49.738;9.004;2023-08-06T02:44:33;98503.09;;;17.23;77.19
75996;BME280;64681;49.738;9.004;2023-08-06T02:46:59;98499.97;;;17.28;76.94
75996;BME280;64681;49.738;9.004;2023-08-06T02:49:25;98498.06;;;17.29;76.73
75996;BME280;64681;49.738;9.004;2023-08-06T02:51:50;98485.75;;;17.24;77.08
75996;BME280;64681;49.738;9.004;2023-08-06T02:54:16;98489.16;;;17.32;76.79
75996;BME280;64681;49.738;9.004;2023-08-06T02:56:45;98494.19;;;17.33;76.20
75996;BME280;64681;49.738;9.004;2023-08-06T02:59:12;98489.63;;;17.23;77.16
75996;BME280;64681;49.738;9.004;2023-08-06T03:01:38;98485.78;;;17.20;77.32
75996;BME280;64681;49.738;9.004;2023-08-06T03:04:03;98477.56;;;17.38;75.92
75996;BME280;64681;49.738;9.004;2023-08-06T03:06:29;98478.38;;;17.32;76.15
75996;BME280;64681;49.738;9.004;2023-08-06T03:08:54;98470.25;;;17.39;76.09
75996;BME280;64681;49.738;9.004;2023-08-06T03:11:20;98469.09;;;17.36;76.30
75996;BME280;64681;49.738;9.004;2023-08-06T03:13:47;98464.81;;;17.43;75.31
75996;BME280;64681;49.738;9.004;2023-08-06T03:16:12;98462.59;;;17.30;75.90
75996;BME280;64681;49.738;9.004;2023-08-06T03:18:38;98463.03;;;17.25;75.89
75996;BME280;64681;49.738;9.004;2023-08-06T03:21:03;98459.94;;;17.23;76.00
75996;BME280;64681;49.738;9.004;2023-08-06T03:23:29;98456.50;;;17.22;76.26
75996;BME280;64681;49.738;9.004;2023-08-06T03:25:54;98460.72;;;17.23;76.30
75996;BME280;64681;49.738;9.004;2023-08-06T03:28:20;98454.38;;;17.45;75.44
75996;BME280;64681;49.738;9.004;2023-08-06T03:30:46;98444.81;;;17.36;75.31
75996;BME280;64681;49.738;9.004;2023-08-06T03:33:11;98441.81;;;17.27;75.67
75996;BME280;64681;49.738;9.004;2023-08-06T03:35:37;98456.47;;;17.26;76.13
75996;BME280;64681;49.738;9.004;2023-08-06T03:38:02;98450.09;;;16.91;76.88
75996;BME280;64681;49.738;9.004;2023-08-06T03:40:28;98452.75;;;17.02;76.42
75996;BME280;64681;49.738;9.004;2023-08-06T03:42:53;98451.19;;;17.08;76.06
75996;BME280;64681;49.738;9.004;2023-08-06T03:45:19;98449.97;;;17.20;75.08
75996;BME280;64681;49.738;9.004;2023-08-06T03:47:44;98446.25;;;16.92;76.13
75996;BME280;64681;49.738;9.004;2023-08-06T03:50:10;98441.28;;;16.87;76.20
75996;BME280;64681;49.738;9.004;2023-08-06T03:52:36;98445.13;;;16.93;75.95
75996;BME280;64681;49.738;9.004;2023-08-06T03:55:01;98434.69;;;16.99;75.85
75996;BME280;64681;49.738;9.004;2023-08-06T03:57:27;98436.63;;;16.91;74.97
75996;BME280;64681;49.738;9.004;2023-08-06T03:59:53;98442.88;;;16.81;75.59
75996;BME280;64681;49.738;9.004;2023-08-06T04:02:18;98436.03;;;16.61;76.39
75996;BME280;64681;49.738;9.004;2023-08-06T04:04:44;98437.50;;;16.77;75.82
75996;BME280;64681;49.738;9.004;2023-08-06T04:07:09;98430.94;;;16.74;75.86
75996;BME280;64681;49.738;9.004;2023-08-06T04:09:51;98438.25;;;16.77;76.20
75996;BME280;64681;49.738;9.004;2023-08-06T04:12:17;98435.13;;;16.83;75.80
75996;BME280;64681;49.738;9.004;2023-08-06T04:14:43;98438.28;;;16.70;76.99
75996;BME280;64681;49.738;9.004;2023-08-06T04:17:08;98444.75;;;16.84;76.44
75996;BME280;64681;49.738;9.004;2023-08-06T04:19:34;98441.16;;;17.08;75.37
75996;BME280;64681;49.738;9.004;2023-08-06T04:21:59;98437.41;;;16.95;75.94
75996;BME280;64681;49.738;9.004;2023-08-06T04:24:25;98430.06;;;16.99;75.96
75996;BME280;64681;49.738;9.004;2023-08-06T04:26:50;98432.00;;;16.91;75.82
75996;BME280;64681;49.738;9.004;2023-08-06T04:29:16;98434.63;;;17.06;75.53
75996;BME280;64681;49.738;9.004;2023-08-06T04:31:42;98425.59;;;17.31;74.29
75996;BME280;64681;49.738;9.004;2023-08-06T04:34:07;98427.84;;;17.36;73.14
75996;BME280;64681;49.738;9.004;2023-08-06T04:36:34;98418.56;;;17.40;73.88
75996;BME280;64681;49.738;9.004;2023-08-06T04:39:00;98424.50;;;17.66;72.47
75996;BME280;64681;49.738;9.004;2023-08-06T04:41:25;98422.53;;;17.70;72.07
75996;BME280;64681;49.738;9.004;2023-08-06T04:43:51;98415.22;;;17.67;71.41
75996;BME280;64681;49.738;9.004;2023-08-06T04:46:16;98430.56;;;17.78;70.60
75996;BME280;64681;49.738;9.004;2023-08-06T04:48:42;98422.66;;;17.98;70.76
75996;BME280;64681;49.738;9.004;2023-08-06T04:51:07;98424.72;;;17.83;71.16
75996;BME280;64681;49.738;9.004;2023-08-06T04:53:33;98421.78;;;17.70;71.66
75996;BME280;64681;49.738;9.004;2023-08-06T04:55:58;98428.31;;;17.72;71.53
75996;BME280;64681;49.738;9.004;2023-08-06T04:58:24;98425.44;;;17.49;71.98
75996;BME280;64681;49.738;9.004;2023-08-06T05:00:49;98425.47;;;17.45;72.26
75996;BME280;64681;49.738;9.004;2023-08-06T05:03:15;98427.84;;;17.36;72.63
75996;BME280;64681;49.738;9.004;2023-08-06T05:05:41;98419.28;;;17.45;71.66
75996;BME280;64681;49.738;9.004;2023-08-06T05:08:07;98421.13;;;17.09;74.32
75996;BME280;64681;49.738;9.004;2023-08-06T05:10:32;98425.84;;;16.91;74.95
75996;BME280;64681;49.738;9.004;2023-08-06T05:12:58;98423.44;;;17.07;74.24
75996;BME280;64681;49.738;9.004;2023-08-06T05:15:23;98432.13;;;16.73;75.02
75996;BME280;64681;49.738;9.004;2023-08-06T05:17:51;98429.53;;;16.48;76.06
75996;BME280;64681;49.738;9.004;2023-08-06T05:20:16;98427.59;;;16.52;76.40
75996;BME280;64681;49.738;9.004;2023-08-06T05:22:43;98428.69;;;16.62;76.13
75996;BME280;64681;49.738;9.004;2023-08-06T05:25:09;98429.03;;;16.75;75.82
75996;BME280;64681;49.738;9.004;2023-08-06T05:27:34;98427.78;;;16.94;75.34
75996;BME280;64681;49.738;9.004;2023-08-06T05:30:00;98438.97;;;16.92;76.29
75996;BME280;64681;49.738;9.004;2023-08-06T05:32:25;98438.59;;;16.87;75.97
75996;BME280;64681;49.738;9.004;2023-08-06T05:34:51;98439.69;;;17.00;75.55
75996;BME280;64681;49.738;9.004;2023-08-06T05:37:17;98439.28;;;17.02;75.77
75996;BME280;64681;49.738;9.004;2023-08-06T05:39:42;98427.50;;;16.74;76.52
75996;BME280;64681;49.738;9.004;2023-08-06T05:42:08;98436.97;;;17.00;75.84
75996;BME280;64681;49.738;9.004;2023-08-06T05:44:33;98440.84;;;16.92;76.66
75996;BME280;64681;49.738;9.004;2023-08-06T05:46:59;98432.72;;;17.03;76.04
75996;BME280;64681;49.738;9.004;2023-08-06T05:49:24;98438.97;;;16.92;76.27
75996;BME280;64681;49.738;9.004;2023-08-06T05:51:50;98450.44;;;17.04;76.10
75996;BME280;64681;49.738;9.004;2023-08-06T05:54:18;98433.75;;;17.23;75.62
75996;BME280;64681;49.738;9.004;2023-08-06T05:56:44;98441.13;;;17.12;74.44
75996;BME280;64681;49.738;9.004;2023-08-06T05:59:09;98437.44;;;17.44;74.82
75996;BME280;64681;49.738;9.004;2023-08-06T06:01:35;98438.03;;;17.63;73.68
75996;BME280;64681;49.738;9.004;2023-08-06T06:04:01;98440.00;;;17.59;74.66
75996;BME280;64681;49.738;9.004;2023-08-06T06:06:26;98444.59;;;17.62;74.47
75996;BME280;64681;49.738;9.004;2023-08-06T06:08:52;98442.19;;;17.71;74.51
75996;BME280;64681;49.738;9.004;2023-08-06T06:11:17;98446.09;;;17.66;74.14
75996;BME280;64681;49.738;9.004;2023-08-06T06:13:47;98440.59;;;17.32;74.76
75996;BME280;64681;49.738;9.004;2023-08-06T06:16:13;98451.06;;;17.26;75.12
75996;BME280;64681;49.738;9.004;2023-08-06T06:18:38;98453.66;;;16.81;76.91
75996;BME280;64681;49.738;9.004;2023-08-06T06:21:04;98450.53;;;16.86;76.66
75996;BME280;64681;49.738;9.004;2023-08-06T06:23:30;98454.06;;;16.72;77.24
75996;BME280;64681;49.738;9.004;2023-08-06T06:25:55;98450.28;;;16.58;77.54
75996;BME280;64681;49.738;9.004;2023-08-06T06:28:21;98448.78;;;16.46;78.32
75996;BME280;64681;49.738;9.004;2023-08-06T06:30:48;98456.22;;;16.17;79.61
75996;BME280;64681;49.738;9.004;2023-08-06T06:33:13;98458.44;;;16.40;78.51
75996;BME280;64681;49.738;9.004;2023-08-06T06:35:39;98456.91;;;16.39;78.73
75996;BME280;64681;49.738;9.004;2023-08-06T06:38:04;98457.19;;;16.63;77.37
75996;BME280;64681;49.738;9.004;2023-08-06T06:40:30;98458.78;;;16.53;77.54
75996;BME280;64681;49.738;9.004;2023-08-06T06:42:55;98454.19;;;16.43;77.33
75996;BME280;64681;49.738;9.004;2023-08-06T06:45:21;98450.69;;;16.53;77.43
75996;BME280;64681;49.738;9.004;2023-08-06T06:47:46;98451.47;;;16.54;77.18
75996;BME280;64681;49.738;9.004;2023-08-06T06:50:12;98456.53;;;16.34;78.22
75996;BME280;64681;49.738;9.004;2023-08-06T06:52:38;98455.00;;;16.43;78.01
75996;BME280;64681;49.738;9.004;2023-08-06T06:55:04;98457.19;;;16.67;77.44
75996;BME280;64681;49.738;9.004;2023-08-06T06:57:30;98458.28;;;16.76;77.47
75996;BME280;64681;49.738;9.004;2023-08-06T06:59:55;98461.69;;;16.95;76.58
75996;BME280;64681;49.738;9.004;2023-08-06T07:02:21;98458.94;;;17.02;76.32
75996;BME280;64681;49.738;9.004;2023-08-06T07:04:47;98468.56;;;17.03;76.80
75996;BME280;64681;49.738;9.004;2023-08-06T07:07:12;98460.94;;;16.80;77.65
75996;BME280;64681;49.738;9.004;2023-08-06T07:09:38;98461.91;;;16.41;78.89
75996;BME280;64681;49.738;9.004;2023-08-06T07:12:04;98465.59;;;16.80;78.68
75996;BME280;64681;49.738;9.004;2023-08-06T07:14:29;98456.97;;;17.06;76.95
75996;BME280;64681;49.738;9.004;2023-08-06T07:16:55;98458.84;;;17.13;76.71
75996;BME280;64681;49.738;9.004;2023-08-06T07:19:20;98459.84;;;17.37;75.72
75996;BME280;64681;49.738;9.004;2023-08-06T07:21:46;98462.00;;;17.57;75.07
75996;BME280;64681;49.738;9.004;2023-08-06T07:24:12;98462.31;;;17.63;74.43
75996;BME280;64681;49.738;9.004;2023-08-06T07:26:38;98469.00;;;17.51;75.23
75996;BME280;64681;49.738;9.004;2023-08-06T07:29:03;98465.06;;;17.55;74.62
75996;BME280;64681;49.738;9.004;2023-08-06T07:31:29;98457.75;;;17.56;74.90
75996;BME280;64681;49.738;9.004;2023-08-06T07:33:54;98457.75;;;17.56;74.80
75996;BME280;64681;49.738;9.004;2023-08-06T07:36:20;98461.63;;;17.55;74.90
75996;BME280;64681;49.738;9.004;2023-08-06T07:38:45;98456.81;;;17.77;73.73
75996;BME280;64681;49.738;9.004;2023-08-06T07:41:11;98454.16;;;17.74;73.19
75996;BME280;64681;49.738;9.004;2023-08-06T07:43:36;98462.84;;;17.47;73.72
75996;BME280;64681;49.738;9.004;2023-08-06T07:46:03;98464.88;;;17.35;75.20
75996;BME280;64681;49.738;9.004;2023-08-06T07:48:28;98449.09;;;17.76;74.42
75996;BME280;64681;49.738;9.004;2023-08-06T07:50:55;98456.59;;;18.02;73.15
75996;BME280;64681;49.738;9.004;2023-08-06T07:53:22;98445.59;;;17.79;72.77
75996;BME280;64681;49.738;9.004;2023-08-06T07:55:51;98458.72;;;18.18;72.47
75996;BME280;64681;49.738;9.004;2023-08-06T07:58:17;98441.34;;;18.19;71.69
75996;BME280;64681;49.738;9.004;2023-08-06T08:00:43;98442.13;;;18.16;72.01
75996;BME280;64681;49.738;9.004;2023-08-06T08:03:14;98452.44;;;18.29;72.11
75996;BME280;64681;49.738;9.004;2023-08-06T08:05:43;98447.50;;;18.51;71.13
75996;BME280;64681;49.738;9.004;2023-08-06T08:08:09;98451.00;;;18.51;71.68
75996;BME280;64681;49.738;9.004;2023-08-06T08:10:35;98451.56;;;18.35;71.51
75996;BME280;64681;49.738;9.004;2023-08-06T08:13:02;98444.38;;;18.25;72.71
75996;BME280;64681;49.738;9.004;2023-08-06T08:15:29;98446.78;;;18.16;71.48
75996;BME280;64681;49.738;9.004;2023-08-06T08:17:55;98445.97;;;17.81;72.83
75996;BME280;64681;49.738;9.004;2023-08-06T08:20:21;98452.94;;;17.75;73.07
75996;BME280;64681;49.738;9.004;2023-08-06T08:22:46;98445.38;;;17.62;73.29
75996;BME280;64681;49.738;9.004;2023-08-06T08:25:12;98442.63;;;17.66;73.69
75996;BME280;64681;49.738;9.004;2023-08-06T08:27:38;98440.47;;;17.92;72.47
75996;BME280;64681;49.738;9.004;2023-08-06T08:30:04;98441.84;;;18.11;72.66
75996;BME280;64681;49.738;9.004;2023-08-06T08:32:30;98435.72;;;18.38;72.72
75996;BME280;64681;49.738;9.004;2023-08-06T08:34:55;98435.13;;;18.54;71.10
75996;BME280;64681;49.738;9.004;2023-08-06T08:37:21;98429.06;;;18.73;72.46
75996;BME280;64681;49.738;9.004;2023-08-06T08:39:46;98431.59;;;19.39;69.39
75996;BME280;64681;49.738;9.004;2023-08-06T08:42:12;98428.31;;;19.95;67.31
75996;BME280;64681;49.738;9.004;2023-08-06T08:44:39;98434.09;;;20.54;66.35
75996;BME280;64681;49.738;9.004;2023-08-06T08:47:06;98430.63;;;22.02;63.46
75996;BME280;64681;49.738;9.004;2023-08-06T08:49:36;98430.88;;;23.50;58.88
75996;BME280;64681;49.738;9.004;2023-08-06T08:52:03;98427.78;;;24.18;54.07
75996;BME280;64681;49.738;9.004;2023-08-06T08:54:33;98429.72;;;24.40;54.13
75996;BME280;64681;49.738;9.004;2023-08-06T08:56:59;98437.25;;;24.58;53.30
75996;BME280;64681;49.738;9.004;2023-08-06T08:59:24;98426.44;;;24.23;52.97
75996;BME280;64681;49.738;9.004;2023-08-06T09:01:51;98433.69;;;23.94;54.57
75996;BME280;64681;49.738;9.004;2023-08-06T09:04:18;98426.34;;;24.36;54.94
75996;BME280;64681;49.738;9.004;2023-08-06T09:06:50;98431.59;;;24.52;52.09
75996;BME280;64681;49.738;9.004;2023-08-06T09:09:27;98425.63;;;24.13;52.90
75996;BME280;64681;49.738;9.004;2023-08-06T09:12:00;98434.00;;;23.61;52.71
75996;BME280;64681;49.738;9.004;2023-08-06T09:14:29;98429.31;;;23.14;53.75
75996;BME280;64681;49.738;9.004;2023-08-06T09:16:55;98427.72;;;22.77;56.63
75996;BME280;64681;49.738;9.004;2023-08-06T09:19:21;98426.59;;;22.88;55.27
75996;BME280;64681;49.738;9.004;2023-08-06T09:21:51;98429.06;;;23.34;54.80
75996;BME280;64681;49.738;9.004;2023-08-06T09:24:17;98427.88;;;23.35;55.17
75996;BME280;64681;49.738;9.004;2023-08-06T09:26:44;98428.25;;;22.17;56.86
75996;BME280;64681;49.738;9.004;2023-08-06T09:29:10;98424.13;;;22.68;56.78
75996;BME280;64681;49.738;9.004;2023-08-06T09:31:50;98431.56;;;21.95;57.87
75996;BME280;64681;49.738;9.004;2023-08-06T09:34:22;98414.97;;;22.49;56.22
75996;BME280;64681;49.738;9.004;2023-08-06T09:36:50;98413.66;;;22.66;56.74
75996;BME280;64681;49.738;9.004;2023-08-06T09:39:18;98420.28;;;22.65;56.49
75996;BME280;64681;49.738;9.004;2023-08-06T09:41:46;98416.44;;;23.14;54.79
75996;BME280;64681;49.738;9.004;2023-08-06T09:44:19;98412.16;;;23.74;54.63
75996;BME280;64681;49.738;9.004;2023-08-06T09:47:00;98410.28;;;22.49;55.62
75996;BME280;64681;49.738;9.004;2023-08-06T09:49:28;98412.88;;;22.53;55.69
75996;BME280;64681;49.738;9.004;2023-08-06T09:51:55;98412.25;;;22.06;57.74
75996;BME280;64681;49.738;9.004;2023-08-06T09:54:25;98426.13;;;21.49;60.06
75996;BME280;64681;49.738;9.004;2023-08-06T09:56:56;98425.91;;;20.58;61.92
75996;BME280;64681;49.738;9.004;2023-08-06T09:59:25;98430.66;;;20.53;64.56
75996;BME280;64681;49.738;9.004;2023-08-06T10:01:51;98430.66;;;19.73;65.88
75996;BME280;64681;49.738;9.004;2023-08-06T10:04:16;98427.97;;;19.93;66.52
75996;BME280;64681;49.738;9.004;2023-08-06T10:06:46;98419.38;;;19.98;66.16
75996;BME280;64681;49.738;9.004;2023-08-06T10:09:13;98415.94;;;20.14;64.55
75996;BME280;64681;49.738;9.004;2023-08-06T10:11:39;98415.22;;;20.67;64.67
75996;BME280;64681;49.738;9.004;2023-08-06T10:14:21;98409.88;;;20.83;65.23
75996;BME280;64681;49.738;9.004;2023-08-06T10:16:49;98400.13;;;21.02;60.57
75996;BME280;64681;49.738;9.004;2023-08-06T10:19:17;98404.44;;;21.16;62.19
75996;BME280;64681;49.738;9.004;2023-08-06T10:22:09;98401.47;;;21.11;58.18
75996;BME280;64681;49.738;9.004;2023-08-06T10:24:55;98395.16;;;21.63;60.96
75996;BME280;64681;49.738;9.004;2023-08-06T10:27:31;98396.91;;;22.12;59.96
75996;BME280;64681;49.738;9.004;2023-08-06T10:30:29;98397.03;;;20.67;59.77
75996;BME280;64681;49.738;9.004;2023-08-06T10:37:59;98393.72;;;21.59;58.79
75996;BME280;64681;49.738;9.004;2023-08-06T10:40:25;98403.69;;;21.78;60.42
75996;BME280;64681;49.738;9.004;2023-08-06T10:42:51;98385.84;;;22.07;59.21
75996;BME280;64681;49.738;9.004;2023-08-06T10:45:18;98401.56;;;21.99;57.21
75996;BME280;64681;49.738;9.004;2023-08-06T10:47:45;98409.44;;;20.85;61.79
75996;BME280;64681;49.738;9.004;2023-08-06T10:50:15;98412.56;;;20.47;63.74
75996;BME280;64681;49.738;9.004;2023-08-06T10:52:45;98417.41;;;20.19;64.24
75996;BME280;64681;49.738;9.004;2023-08-06T10:55:22;98413.94;;;20.18;63.98
75996;BME280;64681;49.738;9.004;2023-08-06T10:57:47;98414.91;;;19.88;65.61
75996;BME280;64681;49.738;9.004;2023-08-06T11:00:13;98424.16;;;20.11;65.32
75996;BME280;64681;49.738;9.004;2023-08-06T11:02:39;98418.13;;;20.03;64.87
75996;BME280;64681;49.738;9.004;2023-08-06T11:05:09;98426.56;;;20.45;64.31
75996;BME280;64681;49.738;9.004;2023-08-06T11:07:36;98417.41;;;21.09;63.58
75996;BME280;64681;49.738;9.004;2023-08-06T11:10:07;98420.38;;;21.14;61.55
75996;BME280;64681;49.738;9.004;2023-08-06T11:12:34;98423.25;;;21.57;62.29
75996;BME280;64681;49.738;9.004;2023-08-06T11:15:01;98423.84;;;21.94;59.14
75996;BME280;64681;49.738;9.004;2023-08-06T11:17:29;98427.00;;;21.63;59.92
75996;BME280;64681;49.738;9.004;2023-08-06T11:19:56;98427.72;;;22.09;58.63
75996;BME280;64681;49.738;9.004;2023-08-06T11:22:21;98430.38;;;22.39;59.19
75996;BME280;64681;49.738;9.004;2023-08-06T11:24:49;98425.50;;;22.72;57.74
75996;BME280;64681;49.738;9.004;2023-08-06T11:27:17;98429.13;;;22.27;57.15
75996;BME280;64681;49.738;9.004;2023-08-06T11:29:44;98428.38;;;21.84;58.27
75996;BME280;64681;49.738;9.004;2023-08-06T11:32:11;98435.66;;;21.58;59.79
75996;BME280;64681;49.738;9.004;2023-08-06T11:34:37;98442.63;;;21.09;61.68
75996;BME280;64681;49.738;9.004;2023-08-06T11:37:04;98445.50;;;20.85;62.53
75996;BME280;64681;49.738;9.004;2023-08-06T11:39:34;98443.53;;;20.29;63.05
75996;BME280;64681;49.738;9.004;2023-08-06T11:42:03;98450.91;;;19.65;66.82
75996;BME280;64681;49.738;9.004;2023-08-06T11:44:35;98453.13;;;19.46;67.37
75996;BME280;64681;49.738;9.004;2023-08-06T11:47:05;98457.63;;;19.56;67.20
75996;BME280;64681;49.738;9.004;2023-08-06T11:49:38;98457.69;;;19.97;66.31
75996;BME280;64681;49.738;9.004;2023-08-06T11:52:09;98459.94;;;19.78;65.53
75996;BME280;64681;49.738;9.004;2023-08-06T11:54:35;98466.84;;;20.27;65.46
75996;BME280;64681;49.738;9.004;2023-08-06T11:57:04;98475.88;;;20.40;64.93
75996;BME280;64681;49.738;9.004;2023-08-06T11:59:30;98462.16;;;20.27;62.65
75996;BME280;64681;49.738;9.004;2023-08-06T12:01:56;98473.25;;;19.45;64.91
75996;BME280;64681;49.738;9.004;2023-08-06T12:04:22;98494.44;;;19.50;66.51
75996;BME280;64681;49.738;9.004;2023-08-06T12:06:47;98479.84;;;18.62;68.80
75996;BME280;64681;49.738;9.004;2023-08-06T12:09:13;98513.31;;;18.41;70.80
75996;BME280;64681;49.738;9.004;2023-08-06T12:11:38;98513.50;;;18.23;69.78
75996;BME280;64681;49.738;9.004;2023-08-06T12:14:04;98519.91;;;18.36;70.25
75996;BME280;64681;49.738;9.004;2023-08-06T12:16:29;98508.28;;;18.39;68.57
75996;BME280;64681;49.738;9.004;2023-08-06T12:18:55;98535.00;;;18.68;67.86
75996;BME280;64681;49.738;9.004;2023-08-06T12:21:20;98515.16;;;18.78;67.02
75996;BME280;64681;49.738;9.004;2023-08-06T12:23:46;98538.25;;;19.18;67.84
75996;BME280;64681;49.738;9.004;2023-08-06T12:26:11;98529.31;;;18.90;68.75
75996;BME280;64681;49.738;9.004;2023-08-06T12:28:37;98531.56;;;19.26;69.10
75996;BME280;64681;49.738;9.004;2023-08-06T12:31:02;98542.44;;;19.50;66.83
75996;BME280;64681;49.738;9.004;2023-08-06T12:33:28;98544.16;;;19.09;67.45
75996;BME280;64681;49.738;9.004;2023-08-06T12:35:53;98558.69;;;19.22;68.46
75996;BME280;64681;49.738;9.004;2023-08-06T12:38:20;98558.38;;;19.44;67.22
75996;BME280;64681;49.738;9.004;2023-08-06T12:40:46;98558.38;;;18.82;66.68
75996;BME280;64681;49.738;9.004;2023-08-06T12:43:11;98572.91;;;18.64;69.44
75996;BME280;64681;49.738;9.004;2023-08-06T12:45:37;98576.53;;;18.09;69.53
75996;BME280;64681;49.738;9.004;2023-08-06T12:48:03;98576.34;;;18.30;70.36
75996;BME280;64681;49.738;9.004;2023-08-06T12:50:29;98576.53;;;18.50;68.39
75996;BME280;64681;49.738;9.004;2023-08-06T12:52:55;98584.00;;;18.35;69.17
75996;BME280;64681;49.738;9.004;2023-08-06T12:55:20;98588.06;;;18.13;71.74
75996;BME280;64681;49.738;9.004;2023-08-06T12:57:46;98596.03;;;17.78;71.19
75996;BME280;64681;49.738;9.004;2023-08-06T13:00:11;98596.41;;;17.80;71.74
75996;BME280;64681;49.738;9.004;2023-08-06T13:02:37;98594.22;;;17.64;71.54
75996;BME280;64681;49.738;9.004;2023-08-06T13:05:03;98595.81;;;17.58;72.11
75996;BME280;64681;49.738;9.004;2023-08-06T13:07:31;98606.31;;;17.42;72.15
75996;BME280;64681;49.738;9.004;2023-08-06T13:09:56;98621.97;;;16.80;73.84